Time;durP1;ratioP1;P1;durP2;ratioP2;P2;SDS_P1;SDS_P2;PMS_P1;PMS_P2;Temp;Humidity;BMP_temperature;BMP_pressure;BME280_temperature;BME280_humidity;BME280_pressure;Samples;Min_cycle;Max_cycle;Signal;HPM_P1;HPM_P2
2022/09/22 00:00:24;;;;;;;6.38;4.63;;;;;;;28.40;42.65;100969.75;4190992;28;20118;-66
2022/09/22 00:02:26;;;;;;;7.78;4.57;;;;;;;28.38;42.78;100966.44;4182948;28;20049;-66
2022/09/22 00:04:27;;;;;;;6.47;4.32;;;;;;;28.46;42.88;100984.50;4185727;28;20546;-66
2022/09/22 00:06:33;;;;;;;6.63;4.10;;;;;;;28.48;42.91;100982.16;4196247;28;20044;-66
2022/09/22 00:08:37;;;;;;;8.85;4.93;;;;;;;28.47;42.67;100974.88;4193653;28;20067;-66
2022/09/22 00:10:39;;;;;;;4.65;4.22;;;;;;;28.44;42.79;100969.91;4185379;28;20041;-65
2022/09/22 00:12:40;;;;;;;7.38;4.35;;;;;;;28.49;42.87;100978.19;4181111;28;20033;-66
2022/09/22 00:14:41;;;;;;;5.13;4.03;;;;;;;28.49;42.93;100983.81;4190612;28;20394;-66
2022/09/22 00:16:52;;;;;;;5.22;4.07;;;;;;;28.25;42.72;100948.53;4183548;28;20044;-67
2022/09/22 00:18:53;;;;;;;5.70;4.15;;;;;;;28.40;43.06;100958.47;4193037;28;20530;-67
2022/09/22 00:21:06;;;;;;;5.85;4.18;;;;;;;28.49;42.77;100981.81;4182496;28;20080;-67
2022/09/22 00:23:11;;;;;;;4.97;4.25;;;;;;;28.50;42.99;100982.66;4190133;28;20024;-67
2022/09/22 00:25:12;;;;;;;4.03;3.63;;;;;;;28.49;43.46;100975.38;4195285;28;20044;-67
2022/09/22 00:27:16;;;;;;;5.30;4.80;;;;;;;28.48;43.14;100977.34;4181100;28;20037;-67
2022/09/22 00:29:18;;;;;;;4.78;4.25;;;;;;;28.39;43.16;100967.25;4180811;28;20041;-67
2022/09/22 00:31:22;;;;;;;5.30;4.72;;;;;;;28.36;43.26;100963.13;4180800;28;20037;-67
2022/09/22 00:33:23;;;;;;;5.88;4.18;;;;;;;28.48;43.76;100977.34;4180833;28;20045;-66
2022/09/22 00:35:25;;;;;;;4.40;4.00;;;;;;;28.46;43.40;100973.25;4180827;28;20040;-67
2022/09/22 00:37:27;;;;;;;4.40;4.00;;;;;;;28.47;43.81;100975.72;4181209;28;20029;-67
2022/09/22 00:39:29;;;;;;;5.90;3.88;;;;;;;28.48;43.48;100976.53;4184662;28;20037;-67
2022/09/22 00:41:35;;;;;;;5.20;3.63;;;;;;;28.47;43.58;100969.25;4183460;28;20048;-67
2022/09/22 00:43:37;;;;;;;5.45;4.10;;;;;;;28.46;43.83;100962.81;4184223;28;20040;-66
2022/09/22 00:45:39;;;;;;;5.68;4.28;;;;;;;28.35;43.67;100950.22;4184241;28;20538;-67
2022/09/22 00:47:44;;;;;;;4.20;3.80;;;;;;;28.38;44.10;100948.72;4183711;28;20091;-66
2022/09/22 00:50:03;;;;;;;4.88;4.00;;;;;;;28.46;44.23;100971.25;4183309;28;20190;-67
2022/09/22 00:52:09;;;;;;;6.50;4.30;;;;;;;28.47;43.98;100958.00;4183807;28;20033;-66
2022/09/22 00:54:14;;;;;;;4.35;3.95;;;;;;;28.42;44.03;100942.09;4183963;28;20041;-67
2022/09/22 00:56:27;;;;;;;5.38;4.20;;;;;;;28.40;44.07;100923.88;4188301;28;20450;-67
2022/09/22 00:58:34;;;;;;;4.95;4.25;;;;;;;28.25;43.78;100909.13;4188345;28;20041;-67
2022/09/22 01:00:36;;;;;;;5.20;4.30;;;;;;;28.49;44.26;100945.22;4183915;28;20447;-67
2022/09/22 01:02:38;;;;;;;4.65;3.80;;;;;;;28.26;44.31;100924.03;4195479;28;20051;-67
2022/09/22 01:04:41;;;;;;;4.40;4.00;;;;;;;28.47;44.26;100963.63;4200402;28;20044;-67
2022/09/22 01:06:44;;;;;;;5.40;3.92;;;;;;;28.26;44.31;100933.28;4200122;28;20070;-66
2022/09/22 01:08:46;;;;;;;5.15;4.10;;;;;;;28.45;44.35;100960.31;4200350;28;20020;-66
2022/09/22 01:10:48;;;;;;;4.90;4.28;;;;;;;28.46;44.47;100970.41;4200400;28;20105;-67
2022/09/22 01:13:09;;;;;;;10.00;4.25;;;;;;;28.44;44.35;100967.09;4200073;28;20041;-66
2022/09/22 01:15:49;;;;;;;4.35;3.92;;;;;;;28.44;44.70;100964.28;4183506;28;20469;-67
2022/09/22 01:18:23;;;;;;;4.82;4.32;;;;;;;28.46;44.46;100964.78;4184268;28;20029;-67
2022/09/22 01:20:46;;;;;;;4.82;4.05;;;;;;;28.46;44.82;100961.97;4184103;28;20455;-67
2022/09/22 01:23:41;;;;;;;6.18;4.40;;;;;;;28.44;44.85;100959.47;4183490;28;20476;-67
2022/09/22 01:26:31;;;;;;;4.35;3.53;;;;;;;28.45;44.95;100955.50;4132956;28;20077;-66
2022/09/22 01:29:04;;;;;;;4.60;3.80;;;;;;;28.44;44.99;100953.84;4132206;28;20069;-68
2022/09/22 01:31:22;;;;;;;4.47;4.05;;;;;;;28.46;44.87;100945.91;4162923;28;20122;-66
2022/09/22 01:34:00;;;;;;;6.25;3.97;;;;;;;28.46;44.89;100953.53;4183102;28;20127;-66
2022/09/22 01:36:23;;;;;;;6.18;4.03;;;;;;;28.46;44.90;100939.47;4184628;28;20097;-66
2022/09/22 01:38:36;;;;;;;4.25;3.60;;;;;;;28.46;44.51;100934.66;4182664;28;20465;-68
2022/09/22 01:40:57;;;;;;;4.35;3.83;;;;;;;28.46;44.77;100939.47;4196851;28;20094;-68
2022/09/22 01:43:07;;;;;;;4.88;4.03;;;;;;;28.46;45.19;100929.03;4183197;28;20045;-66
2022/09/22 01:45:14;;;;;;;4.45;4.05;;;;;;;28.46;45.19;100942.28;4189814;28;20037;-68
2022/09/22 01:47:23;;;;;;;3.92;3.63;;;;;;;28.43;45.16;100934.47;4193461;28;20044;-67
2022/09/22 01:49:29;;;;;;;4.32;3.83;;;;;;;28.46;45.35;100945.91;4197491;28;20074;-67
2022/09/22 01:51:39;;;;;;;4.80;4.13;;;;;;;28.45;45.24;100932.16;4187856;28;20053;-67
2022/09/22 01:53:57;;;;;;;6.32;3.83;;;;;;;28.45;45.58;100937.78;4188644;28;20186;-67
2022/09/22 01:56:05;;;;;;;4.63;3.63;;;;;;;28.43;45.25;100929.69;4195691;28;20449;-67
2022/09/22 01:58:15;;;;;;;4.22;3.78;;;;;;;28.47;45.70;100935.47;4193550;28;20037;-67
2022/09/22 02:00:17;;;;;;;4.30;3.60;;;;;;;28.46;45.51;100939.47;4192247;28;20033;-67
2022/09/22 02:02:56;;;;;;;5.63;4.13;;;;;;;28.41;45.88;100945.22;4182715;28;20094;-67
2022/09/22 02:05:04;;;;;;;4.75;4.25;;;;;;;28.42;45.39;100933.66;4163910;28;20101;-67
2022/09/22 02:07:15;;;;;;;5.25;4.32;;;;;;;28.45;45.72;100932.16;4183327;28;20431;-66
2022/09/22 02:09:23;;;;;;;4.88;4.40;;;;;;;28.46;45.72;100947.91;4196345;28;20085;-67
2022/09/22 02:11:28;;;;;;;6.10;4.10;;;;;;;28.46;44.98;100933.81;4193989;28;20093;-65
2022/09/22 02:13:29;;;;;;;45.70;6.30;;;;;;;28.47;45.52;100929.84;4195294;28;20044;-67
2022/09/22 02:17:57;;;;;;;12.07;4.25;;;;;;;28.45;45.59;100918.06;4188290;28;20110;-67
2022/09/22 02:19:59;;;;;;;8.45;4.18;;;;;;;28.44;45.58;100913.63;4199307;28;20105;-67
2022/09/22 02:22:01;;;;;;;8.40;4.05;;;;;;;28.46;45.81;100920.59;4196595;28;20036;-67
2022/09/22 02:24:03;;;;;;;7.63;4.25;;;;;;;28.35;45.79;100906.00;4182152;28;20037;-66
2022/09/22 02:26:07;;;;;;;6.20;4.30;;;;;;;28.46;45.78;100916.94;4182549;28;20481;-66
2022/09/22 02:28:14;;;;;;;5.78;4.07;;;;;;;28.36;46.19;100904.88;4182586;28;20041;-67
2022/09/22 02:30:19;;;;;;;6.25;4.78;;;;;;;28.44;46.42;100920.06;4183982;28;20071;-67
2022/09/22 02:32:25;;;;;;;7.32;4.80;;;;;;;28.40;46.30;100905.00;4184105;28;20094;-67
2022/09/22 02:34:30;;;;;;;6.93;4.13;;;;;;;28.44;46.16;100914.44;4185274;28;20125;-67
2022/09/22 02:36:50;;;;;;;4.55;4.03;;;;;;;28.43;46.08;100909.16;4194932;28;20053;-67
2022/09/22 02:38:52;;;;;;;5.55;4.30;;;;;;;28.45;46.33;100913.28;4182254;28;20435;-67
2022/09/22 02:41:14;;;;;;;6.65;4.45;;;;;;;28.43;46.21;100906.34;4182260;28;20037;-68
2022/09/22 02:43:51;;;;;;;7.05;4.30;;;;;;;28.47;46.04;100915.78;4182291;28;20083;-65
2022/09/22 02:45:56;;;;;;;4.60;4.18;;;;;;;28.48;45.85;100914.59;4173616;28;20098;-66
2022/09/22 02:48:09;;;;;;;8.00;4.57;;;;;;;28.48;46.15;100907.00;4182109;28;20443;-66
2022/09/22 02:50:14;;;;;;;7.00;4.90;;;;;;;28.48;45.93;100900.53;4182585;28;20086;-66
2022/09/22 02:52:19;;;;;;;4.60;4.18;;;;;;;28.47;46.19;100902.53;4181462;28;20411;-68
2022/09/22 02:54:24;;;;;;;9.35;4.53;;;;;;;28.47;45.99;100898.88;4182057;28;20546;-67
2022/09/22 02:56:28;;;;;;;6.75;4.65;;;;;;;28.41;45.73;100881.34;4181838;28;20548;-68
2022/09/22 02:58:29;;;;;;;9.45;4.65;;;;;;;28.49;46.20;100899.38;4181748;28;20094;-67
2022/09/22 03:00:31;;;;;;;7.90;4.28;;;;;;;28.48;45.98;100898.53;4181604;28;20045;-67
2022/09/22 03:02:36;;;;;;;4.80;4.30;;;;;;;28.48;46.06;100889.28;4191688;28;20445;-68
2022/09/22 03:04:37;;;;;;;6.55;4.93;;;;;;;28.48;46.05;100897.72;4214284;28;20480;-68
2022/09/22 03:06:38;;;;;;;7.68;4.65;;;;;;;28.47;45.79;100896.06;4213609;28;20039;-68
2022/09/22 03:08:40;;;;;;;5.28;4.65;;;;;;;28.47;46.20;100893.25;4181940;28;20044;-68
2022/09/22 03:10:42;;;;;;;7.78;5.13;;;;;;;28.45;46.06;100898.38;4182543;28;20036;-68
2022/09/22 03:12:43;;;;;;;5.13;4.63;;;;;;;28.46;46.48;100900.88;4198108;28;20102;-68
2022/09/22 03:14:45;;;;;;;7.72;4.53;;;;;;;28.45;46.18;100881.50;4198268;28;20036;-68
2022/09/22 03:16:46;;;;;;;5.55;4.50;;;;;;;28.47;46.07;100876.38;4198316;28;20094;-67
2022/09/22 03:18:53;;;;;;;6.40;4.68;;;;;;;28.49;45.86;100871.22;4198618;28;20032;-68
2022/09/22 03:20:54;;;;;;;5.07;4.57;;;;;;;28.51;45.78;100874.53;4197830;28;20110;-68
2022/09/22 03:23:01;;;;;;;5.25;4.75;;;;;;;28.50;46.05;100872.88;4197925;28;20037;-69
2022/09/22 03:25:03;;;;;;;6.47;5.45;;;;;;;28.49;46.04;100874.03;4188192;28;20029;-65
2022/09/22 03:27:05;;;;;;;6.00;4.60;;;;;;;28.50;46.11;100870.91;4198121;28;20094;-68
2022/09/22 03:29:06;;;;;;;6.72;5.20;;;;;;;28.49;46.03;100860.78;4198259;28;20098;-66
2022/09/22 03:31:07;;;;;;;5.75;4.55;;;;;;;28.49;46.13;100859.97;4197824;28;20094;-67
2022/09/22 03:33:11;;;;;;;11.98;5.10;;;;;;;28.51;45.84;100857.66;4197609;28;20090;-66
2022/09/22 03:35:12;;;;;;;12.00;4.95;;;;;;;28.52;45.42;100865.75;4197987;28;20045;-66
2022/09/22 03:37:16;;;;;;;6.88;4.90;;;;;;;28.54;45.53;100862.59;4198109;28;20357;-67
2022/09/22 03:39:18;;;;;;;5.30;4.57;;;;;;;28.56;45.23;100860.28;4198322;28;20032;-67
2022/09/22 03:41:19;;;;;;;6.97;5.10;;;;;;;28.58;45.42;100857.94;4191446;28;20075;-66
2022/09/22 03:43:23;;;;;;;6.90;5.30;;;;;;;28.59;45.37;100856.78;4208818;28;20093;-67
2022/09/22 03:45:24;;;;;;;6.13;4.72;;;;;;;28.61;45.54;100857.28;4209502;28;20049;-66
2022/09/22 03:47:26;;;;;;;6.93;5.10;;;;;;;28.61;45.64;100851.66;4183748;28;20094;-66
2022/09/22 03:49:27;;;;;;;6.55;4.78;;;;;;;28.57;45.43;100850.66;4181470;28;20086;-67
2022/09/22 03:51:29;;;;;;;6.65;5.25;;;;;;;28.61;45.52;100854.47;4181095;28;20037;-65
2022/09/22 03:53:31;;;;;;;5.80;4.70;;;;;;;28.63;45.58;100866.22;4181505;28;20037;-67
2022/09/22 03:55:36;;;;;;;6.97;4.90;;;;;;;28.59;45.83;100848.34;4180824;28;20420;-68
2022/09/22 03:57:38;;;;;;;6.55;4.75;;;;;;;28.63;45.77;100852.13;4181869;28;20480;-67
2022/09/22 03:59:39;;;;;;;5.53;5.03;;;;;;;28.63;45.60;100852.13;4181338;28;20542;-67
2022/09/22 04:01:40;;;;;;;5.72;4.68;;;;;;;28.63;45.82;100855.78;4190409;28;20044;-66
2022/09/22 04:03:42;;;;;;;7.18;4.70;;;;;;;28.62;45.86;100854.13;4197553;28;20476;-67
2022/09/22 04:05:50;;;;;;;5.60;4.95;;;;;;;28.62;45.75;100858.94;4197190;28;20454;-67
2022/09/22 04:07:54;;;;;;;5.97;5.03;;;;;;;28.40;45.81;100820.56;4197277;28;20446;-66
2022/09/22 04:09:56;;;;;;;8.65;4.85;;;;;;;28.64;45.73;100859.44;4197828;28;20106;-66
2022/09/22 04:11:57;;;;;;;7.50;4.95;;;;;;;28.47;45.56;100834.97;4185550;28;20098;-66
2022/09/22 04:14:00;;;;;;;7.45;5.30;;;;;;;28.65;45.32;100866.72;4185948;28;20557;-66
2022/09/22 04:16:03;;;;;;;5.68;4.57;;;;;;;28.64;45.48;100873.50;4192740;28;20040;-65
2022/09/22 04:18:04;;;;;;;5.93;5.32;;;;;;;28.64;45.38;100873.50;4214320;28;20044;-67
2022/09/22 04:20:07;;;;;;;5.97;4.80;;;;;;;28.61;45.30;100868.53;4208179;28;20086;-66
2022/09/22 04:22:08;;;;;;;6.38;5.35;;;;;;;28.62;45.47;100871.00;4197241;28;20046;-67
2022/09/22 04:24:10;;;;;;;5.85;5.15;;;;;;;28.63;45.23;100871.84;4197440;28;20045;-68
2022/09/22 04:26:11;;;;;;;6.85;5.15;;;;;;;28.63;45.20;100863.41;4197507;28;20040;-67
2022/09/22 04:28:13;;;;;;;5.43;4.93;;;;;;;28.64;45.27;100865.06;4198115;28;20121;-67
2022/09/22 04:30:14;;;;;;;7.38;4.80;;;;;;;28.63;45.42;100860.56;4197392;28;20045;-66
2022/09/22 04:32:19;;;;;;;5.63;5.13;;;;;;;28.64;45.36;100862.25;4191864;28;20041;-66
2022/09/22 04:34:26;;;;;;;6.65;5.15;;;;;;;28.62;45.51;100861.75;4180498;28;20432;-67
2022/09/22 04:36:36;;;;;;;6.38;4.82;;;;;;;28.63;45.49;100855.78;4181038;28;20102;-66
2022/09/22 04:38:37;;;;;;;6.63;5.00;;;;;;;28.60;45.32;100850.00;4193846;28;20052;-66
2022/09/22 04:40:39;;;;;;;6.25;5.60;;;;;;;28.62;45.33;100858.94;4213939;28;20032;-67
2022/09/22 04:42:43;;;;;;;5.63;5.07;;;;;;;28.51;45.39;100832.31;4213509;28;20045;-67
2022/09/22 04:44:45;;;;;;;6.30;5.20;;;;;;;28.57;45.46;100845.88;4213923;28;20032;-67
2022/09/22 04:46:48;;;;;;;6.05;5.38;;;;;;;28.63;45.46;100854.94;4213991;28;20043;-66
2022/09/22 04:48:49;;;;;;;6.05;5.45;;;;;;;28.63;45.11;100838.06;4209813;28;20044;-67
2022/09/22 04:50:50;;;;;;;6.15;5.40;;;;;;;28.63;45.33;100843.69;4180575;28;20044;-67
2022/09/22 04:52:54;;;;;;;8.23;5.50;;;;;;;28.62;45.57;100842.03;4180216;28;20091;-67
2022/09/22 04:54:55;;;;;;;7.72;5.78;;;;;;;28.53;45.32;100819.53;4181060;28;20029;-67
2022/09/22 04:56:56;;;;;;;6.63;5.95;;;;;;;28.63;45.35;100830.44;4180792;28;20033;-68
2022/09/22 04:58:58;;;;;;;6.20;5.55;;;;;;;28.62;45.48;100825.97;4180757;28;20122;-68
2022/09/22 05:01:04;;;;;;;6.38;5.78;;;;;;;28.61;45.48;100818.69;4180745;28;20094;-68
2022/09/22 05:03:11;;;;;;;6.30;5.70;;;;;;;28.62;45.46;100816.69;4180500;28;20546;-67
2022/09/22 05:05:16;;;;;;;5.60;5.05;;;;;;;28.53;45.25;100791.38;4180377;28;20087;-67
2022/09/22 05:07:17;;;;;;;7.03;5.82;;;;;;;28.63;45.50;100805.09;4181202;28;20041;-67
2022/09/22 05:09:19;;;;;;;5.93;5.00;;;;;;;28.64;45.25;100811.56;4200652;28;20084;-68
2022/09/22 05:11:22;;;;;;;6.38;5.78;;;;;;;28.65;45.36;100807.59;4205567;28;20457;-66
2022/09/22 05:13:26;;;;;;;7.18;5.85;;;;;;;28.64;45.34;100800.31;4197247;28;20037;-67
2022/09/22 05:15:31;;;;;;;6.77;5.73;;;;;;;28.63;45.14;100799.47;4196997;28;20094;-66
2022/09/22 05:17:34;;;;;;;5.82;5.22;;;;;;;28.63;45.28;100798.63;4196993;28;20438;-67
2022/09/22 05:19:36;;;;;;;8.68;5.93;;;;;;;28.63;45.21;100795.81;4196861;28;20071;-67
2022/09/22 05:21:39;;;;;;;6.28;5.68;;;;;;;28.62;45.22;100797.00;4196914;28;20090;-67
2022/09/22 05:23:41;;;;;;;6.22;5.63;;;;;;;28.62;45.32;100802.63;4187991;28;20029;-65
2022/09/22 05:25:43;;;;;;;7.82;6.80;;;;;;;28.62;45.42;100791.38;4188266;28;20114;-66
2022/09/22 05:27:54;;;;;;;7.05;5.95;;;;;;;28.61;44.93;100790.53;4198018;28;20041;-66
2022/09/22 05:29:55;;;;;;;6.70;5.90;;;;;;;28.63;44.94;100793.00;4189887;28;20083;-66
2022/09/22 05:31:59;;;;;;;6.25;5.65;;;;;;;28.64;45.08;100789.06;4195747;28;20041;-66
2022/09/22 05:34:03;;;;;;;8.87;6.07;;;;;;;28.61;45.07;100782.09;4200017;28;20102;-66
2022/09/22 05:36:05;;;;;;;7.90;6.50;;;;;;;28.62;45.05;100780.09;4186450;28;20032;-66
2022/09/22 05:38:09;;;;;;;6.93;5.85;;;;;;;28.62;45.00;100777.28;4183531;28;20036;-66
2022/09/22 05:40:11;;;;;;;6.72;5.93;;;;;;;28.64;45.39;100766.53;4188249;28;20036;-66
2022/09/22 05:42:13;;;;;;;6.45;5.75;;;;;;;28.60;45.31;100766.38;4199765;28;20037;-67
2022/09/22 05:44:15;;;;;;;7.10;6.07;;;;;;;28.63;45.18;100754.41;4199651;28;20448;-66
2022/09/22 05:46:16;;;;;;;6.75;6.05;;;;;;;28.52;44.94;100735.44;4199516;28;20040;-66
2022/09/22 05:48:17;;;;;;;6.68;6.00;;;;;;;28.64;44.99;100749.63;4185583;28;20037;-67
2022/09/22 05:50:20;;;;;;;7.25;5.95;;;;;;;28.62;44.88;100747.13;4183134;28;20385;-66
2022/09/22 05:52:21;;;;;;;7.85;6.65;;;;;;;28.63;44.96;100740.34;4182643;28;20041;-66
2022/09/22 05:54:23;;;;;;;6.93;5.75;;;;;;;28.53;44.90;100720.19;4182924;28;20048;-65
2022/09/22 05:56:24;;;;;;;7.78;6.30;;;;;;;28.63;44.90;100736.69;4183037;28;20488;-66
2022/09/22 05:58:26;;;;;;;6.90;6.20;;;;;;;28.62;45.01;100730.25;4183317;28;20033;-66
2022/09/22 06:00:27;;;;;;;8.65;6.45;;;;;;;28.61;45.02;100722.16;4182844;28;20037;-66
2022/09/22 06:02:28;;;;;;;6.80;6.10;;;;;;;28.61;44.92;100719.34;4182725;28;20049;-66
2022/09/22 06:04:30;;;;;;;8.18;6.40;;;;;;;28.50;44.99;100698.34;4182603;28;20049;-66
2022/09/22 06:06:31;;;;;;;6.95;6.03;;;;;;;28.60;45.04;100692.34;4182982;28;20041;-66
2022/09/22 06:08:33;;;;;;;6.78;6.07;;;;;;;28.60;44.76;100697.97;4182965;28;20044;-66
2022/09/22 06:10:36;;;;;;;7.05;5.95;;;;;;;28.61;44.75;100694.00;4182949;28;20040;-66
2022/09/22 06:12:38;;;;;;;6.22;5.63;;;;;;;28.42;44.61;100662.66;4182732;28;20045;-66
2022/09/22 06:14:39;;;;;;;6.88;6.25;;;;;;;28.61;45.00;100694.00;4196037;28;20417;-66
2022/09/22 06:16:42;;;;;;;6.63;5.72;;;;;;;28.61;44.95;100696.81;4206668;28;20052;-65
2022/09/22 06:18:46;;;;;;;6.72;6.03;;;;;;;28.61;45.12;100696.81;4199112;28;20094;-65
2022/09/22 06:20:48;;;;;;;7.38;6.57;;;;;;;28.61;44.94;100677.94;4202992;28;20044;-66
2022/09/22 06:22:49;;;;;;;7.78;6.10;;;;;;;28.62;45.02;100678.75;4215343;28;20426;-66
2022/09/22 06:24:51;;;;;;;6.40;5.78;;;;;;;28.59;44.53;100668.16;4201271;28;20045;-67
2022/09/22 06:26:55;;;;;;;7.28;6.40;;;;;;;28.61;44.47;100665.84;4199176;28;20114;-66
2022/09/22 06:28:56;;;;;;;7.55;6.13;;;;;;;28.61;44.23;100660.22;4198824;28;20044;-66
2022/09/22 06:30:59;;;;;;;8.43;6.50;;;;;;;28.59;44.42;100645.63;4198040;28;20090;-66
2022/09/22 06:33:01;;;;;;;8.55;6.57;;;;;;;28.55;44.20;100634.25;4197602;28;20036;-66
2022/09/22 06:35:02;;;;;;;8.32;6.15;;;;;;;28.61;44.05;100637.69;4192535;28;20045;-65
2022/09/22 06:37:07;;;;;;;8.40;6.47;;;;;;;28.54;44.19;100638.22;4191877;28;20086;-66
2022/09/22 06:39:09;;;;;;;7.78;6.63;;;;;;;28.61;44.13;100654.59;4198715;28;20097;-66
2022/09/22 06:41:10;;;;;;;7.30;6.22;;;;;;;28.61;44.08;100646.13;4196950;28;20032;-66
2022/09/22 06:43:21;;;;;;;6.70;5.95;;;;;;;28.60;44.26;100641.69;4187814;28;20102;-66
2022/09/22 06:45:25;;;;;;;7.57;6.53;;;;;;;28.62;44.07;100642.16;4197865;28;20078;-67
2022/09/22 06:47:27;;;;;;;7.45;6.55;;;;;;;28.62;44.11;100633.72;4189362;28;20075;-67
2022/09/22 06:49:28;;;;;;;6.95;6.22;;;;;;;28.62;44.04;100628.06;4184298;28;20102;-67
2022/09/22 06:51:32;;;;;;;6.57;5.88;;;;;;;28.57;43.98;100615.03;4186793;28;20033;-66
2022/09/22 06:53:35;;;;;;;7.03;6.28;;;;;;;28.51;43.89;100598.69;4198758;28;20044;-67
2022/09/22 06:55:38;;;;;;;7.93;6.38;;;;;;;28.61;43.96;100616.00;4197203;28;20364;-67
2022/09/22 06:57:40;;;;;;;7.22;6.53;;;;;;;28.61;43.89;100616.00;4197123;28;20110;-67
2022/09/22 06:59:41;;;;;;;7.30;6.57;;;;;;;28.59;44.11;100615.53;4192391;28;20029;-66
2022/09/22 07:01:44;;;;;;;7.22;6.53;;;;;;;28.36;44.05;100586.88;4191088;28;20110;-66
2022/09/22 07:03:48;;;;;;;7.03;5.97;;;;;;;28.59;44.13;100625.94;4198537;28;20041;-67
2022/09/22 07:05:56;;;;;;;6.30;5.67;;;;;;;28.59;43.63;100621.16;4196480;28;20445;-67
2022/09/22 07:07:57;;;;;;;7.93;6.40;;;;;;;28.56;44.12;100606.94;4198215;28;20048;-67
2022/09/22 07:09:59;;;;;;;7.63;6.53;;;;;;;28.60;43.79;100596.63;4198190;28;20109;-67
2022/09/22 07:12:00;;;;;;;6.60;6.00;;;;;;;28.59;43.77;100594.97;4198188;28;20040;-67
2022/09/22 07:14:01;;;;;;;7.15;6.43;;;;;;;28.59;44.19;100589.34;4198637;28;20032;-65
2022/09/22 07:16:16;;;;;;;7.75;6.95;;;;;;;28.58;44.05;100582.06;4197982;28;20044;-66
2022/09/22 07:18:17;;;;;;;7.50;6.70;;;;;;;28.58;44.14;100582.06;4187550;28;20040;-67
2022/09/22 07:20:21;;;;;;;8.30;6.53;;;;;;;28.57;44.05;100574.78;4195563;28;20289;-67
2022/09/22 07:22:22;;;;;;;8.40;7.53;;;;;;;28.40;43.92;100541.13;4187161;28;20071;-67
2022/09/22 07:24:26;;;;;;;11.13;6.35;;;;;;;28.57;44.36;100555.09;4198218;28;20037;-67
2022/09/22 07:26:31;;;;;;;6.82;6.13;;;;;;;28.54;43.78;100552.94;4193034;28;20037;-67
2022/09/22 07:28:33;;;;;;;;;;;;;;;28.55;43.33;100547.00;4182184;28;20435;-67
2022/09/22 07:30:36;;;;;;;7.75;6.95;;;;;;;28.62;43.07;100547.25;4182028;28;19912;-67
2022/09/22 07:32:38;;;;;;;8.85;6.70;;;;;;;28.61;43.39;100558.88;4181421;28;20122;-67
2022/09/22 07:34:42;;;;;;;7.32;6.63;;;;;;;28.59;43.84;100566.81;4181338;28;20150;-67
2022/09/22 07:36:43;;;;;;;7.05;6.35;;;;;;;28.58;43.86;100570.81;4181524;28;20053;-67
2022/09/22 07:38:48;;;;;;;8.55;6.90;;;;;;;28.42;43.78;100533.19;4185447;28;20356;-67
2022/09/22 07:40:52;;;;;;;8.30;7.13;;;;;;;28.51;44.08;100559.28;4175793;28;20044;-67
2022/09/22 07:42:53;;;;;;;7.35;6.22;;;;;;;28.39;44.03;100545.13;4181171;28;20037;-67
2022/09/22 07:45:13;;;;;;;7.70;6.88;;;;;;;28.25;44.05;100520.84;4179597;28;20037;-67
2022/09/22 07:48:34;;;;;;;7.47;6.65;;;;;;;28.57;43.79;100571.97;4180925;28;20041;-67
2022/09/22 07:49:36;;;;;;;8.02;7.22;;;;;;;28.53;43.87;100566.19;4181076;28;20082;-67
2022/09/22 07:51:41;;;;;;;7.65;6.93;;;;;;;28.56;43.78;100573.97;4180751;28;20041;-67
2022/09/22 07:53:43;;;;;;;7.45;6.50;;;;;;;28.56;43.85;100564.72;4181046;28;20048;-67
2022/09/22 07:55:48;;;;;;;7.57;6.78;;;;;;;28.56;43.88;100564.72;4181457;28;20033;-67
2022/09/22 07:57:59;;;;;;;7.38;6.68;;;;;;;28.39;43.99;100537.50;4181453;28;20431;-67
2022/09/22 08:00:01;;;;;;;7.80;6.72;;;;;;;28.56;44.09;100570.34;4181352;28;20096;-67
2022/09/22 08:02:02;;;;;;;7.47;6.72;;;;;;;28.54;43.74;100576.28;4180808;28;20033;-67
2022/09/22 08:04:03;;;;;;;6.85;6.15;;;;;;;28.55;43.78;100575.16;4180947;28;20037;-67
2022/09/22 08:06:09;;;;;;;8.00;6.45;;;;;;;28.56;43.54;100570.34;4181332;28;20083;-67
2022/09/22 08:08:11;;;;;;;7.75;6.68;;;;;;;28.50;43.79;100550.00;4180891;28;20042;-67
2022/09/22 08:10:13;;;;;;;8.02;7.05;;;;;;;28.54;43.61;100550.13;4181205;28;20099;-67
2022/09/22 08:12:15;;;;;;;7.07;6.03;;;;;;;28.53;43.53;100529.59;4187783;28;20037;-67
2022/09/22 08:14:21;;;;;;;8.15;7.03;;;;;;;28.54;43.95;100536.06;4190658;28;20037;-67
2022/09/22 08:16:27;;;;;;;7.05;6.35;;;;;;;28.53;43.61;100534.41;4203383;28;20460;-66
2022/09/22 08:18:29;;;;;;;7.88;6.03;;;;;;;28.53;43.48;100523.16;4186714;28;20037;-67
2022/09/22 08:20:30;;;;;;;7.13;6.25;;;;;;;28.52;43.44;100515.88;4183625;28;20041;-67
2022/09/22 08:22:32;;;;;;;7.95;6.80;;;;;;;28.50;42.98;100507.78;4195873;28;20025;-67
2022/09/22 08:24:36;;;;;;;7.40;6.70;;;;;;;28.52;43.16;100504.63;4197667;28;20443;-67
2022/09/22 08:26:39;;;;;;;6.15;5.55;;;;;;;28.52;42.81;100497.00;4196213;28;20044;-68
2022/09/22 08:28:40;;;;;;;7.05;6.32;;;;;;;28.52;43.07;100499.81;4183797;28;20040;-67
2022/09/22 08:30:50;;;;;;;6.85;6.15;;;;;;;28.51;43.31;100492.56;4192708;28;20098;-67
2022/09/22 08:32:52;;;;;;;7.45;6.43;;;;;;;28.50;43.26;100490.06;4195878;28;20052;-67
2022/09/22 08:34:56;;;;;;;7.95;7.10;;;;;;;28.52;43.95;100482.13;4195597;28;20102;-67
2022/09/22 08:37:00;;;;;;;7.00;6.30;;;;;;;28.41;44.00;100475.22;4196553;28;20094;-67
2022/09/22 08:39:05;;;;;;;7.72;6.93;;;;;;;28.50;43.87;100484.44;4193840;28;20281;-67
2022/09/22 08:41:20;;;;;;;7.20;6.50;;;;;;;28.43;43.60;100461.66;4195479;28;20037;-67
2022/09/22 08:43:24;;;;;;;8.07;7.22;;;;;;;28.53;44.00;100467.69;4190448;28;20036;-66
2022/09/22 08:45:34;;;;;;;8.38;6.32;;;;;;;28.52;43.87;100466.03;4183851;28;20110;-67
2022/09/22 08:53:04;;;;;;;7.45;6.68;;;;;;;28.54;43.79;100451.63;4168357;28;20388;-67
2022/09/22 08:55:16;;;;;;;8.23;7.43;;;;;;;28.39;43.84;100438.19;4180503;28;20045;-67
2022/09/22 08:57:26;;;;;;;7.20;6.50;;;;;;;28.53;43.96;100461.22;4191734;28;20040;-67
2022/09/22 08:59:54;;;;;;;8.15;7.35;;;;;;;28.34;44.20;100434.41;4180775;28;20183;-67
2022/09/22 09:02:01;;;;;;;9.15;7.65;;;;;;;28.51;43.97;100463.59;4188356;28;20116;-67
2022/09/22 09:04:14;;;;;;;8.80;6.97;;;;;;;28.47;44.14;100455.00;4196448;28;20040;-67
2022/09/22 09:07:06;;;;;;;7.70;6.90;;;;;;;28.48;44.34;100448.19;4183968;28;20095;-67
2022/09/22 09:09:07;;;;;;;7.78;6.97;;;;;;;28.52;44.32;100442.69;4150524;28;20040;-67
2022/09/22 09:11:11;;;;;;;9.35;8.00;;;;;;;28.51;44.36;100441.06;4189215;28;20098;-68
2022/09/22 09:13:39;;;;;;;7.55;6.85;;;;;;;28.49;44.43;100434.94;4200404;28;20468;-67
2022/09/22 09:16:13;;;;;;;8.15;6.93;;;;;;;28.48;44.40;100433.31;4198793;28;20040;-66
2022/09/22 09:18:21;;;;;;;7.63;6.82;;;;;;;28.46;44.47;100432.84;4157704;28;20044;-67
2022/09/22 09:20:28;;;;;;;8.10;7.30;;;;;;;28.50;44.54;100445.03;4186558;28;20098;-67
2022/09/22 09:22:40;;;;;;;8.07;7.28;;;;;;;28.49;44.92;100432.13;4199999;28;20036;-67
2022/09/22 09:24:48;;;;;;;7.80;7.07;;;;;;;28.51;44.70;100424.19;4191746;28;20037;-67
2022/09/22 09:26:51;;;;;;;7.60;6.80;;;;;;;28.51;44.39;100418.56;4193801;28;20036;-67
2022/09/22 09:29:02;;;;;;;7.65;6.85;;;;;;;28.48;44.58;100408.78;4187880;28;20040;-67
2022/09/22 09:31:16;;;;;;;8.20;6.95;;;;;;;28.49;44.81;100403.97;4186660;28;20555;-67
2022/09/22 09:34:02;;;;;;;8.70;7.13;;;;;;;28.48;44.96;100403.16;4194913;28;20032;-67
2022/09/22 09:36:14;;;;;;;7.80;7.00;;;;;;;28.50;44.92;100392.41;4194904;28;20098;-67
2022/09/22 09:38:25;;;;;;;7.55;6.80;;;;;;;28.51;44.84;100379.16;4188626;28;20048;-67
2022/09/22 09:40:32;;;;;;;9.65;7.63;;;;;;;28.40;44.77;100361.84;4199653;28;20036;-67
2022/09/22 09:42:35;;;;;;;7.78;6.97;;;;;;;28.35;44.74;100331.94;4199490;28;20178;-67
2022/09/22 09:44:41;;;;;;;8.00;7.20;;;;;;;28.49;44.64;100354.13;4199818;28;20045;-67
2022/09/22 09:47:11;;;;;;;9.10;7.82;;;;;;;28.49;44.37;100364.56;4199512;28;20032;-67
2022/09/22 09:49:15;;;;;;;7.78;6.97;;;;;;;28.40;44.45;100363.84;4190471;28;20045;-67
2022/09/22 09:51:22;;;;;;;10.38;6.95;;;;;;;28.51;44.49;100396.03;4182966;28;20041;-67
2022/09/22 09:53:43;;;;;;;7.93;7.10;;;;;;;28.48;45.11;100399.53;4183397;28;20036;-67